sensor_id;sensor_type;location;lat;lon;timestamp;P1;durP1;ratioP1;P2;durP2;ratioP2
14088;SDS011;7120;52.890;6.040;2024-02-04T00:02:32;11.57;;;6.17;;
14088;SDS011;7120;52.890;6.040;2024-02-04T00:05:56;14.13;;;6.37;;
14088;SDS011;7120;52.890;6.040;2024-02-04T00:09:20;14.37;;;7.43;;
14088;SDS011;7120;52.890;6.040;2024-02-04T00:12:44;13.17;;;6.77;;
14088;SDS011;7120;52.890;6.040;2024-02-04T00:16:07;10.80;;;7.30;;
14088;SDS011;7120;52.890;6.040;2024-02-04T00:19:31;13.07;;;7.33;;
14088;SDS011;7120;52.890;6.040;2024-02-04T00:22:57;13.93;;;6.83;;
14088;SDS011;7120;52.890;6.040;2024-02-04T00:26:21;15.50;;;7.93;;
14088;SDS011;7120;52.890;6.040;2024-02-04T00:29:45;16.70;;;7.30;;
14088;SDS011;7120;52.890;6.040;2024-02-04T00:33:09;12.40;;;6.67;;
14088;SDS011;7120;52.890;6.040;2024-02-04T00:36:33;13.10;;;6.87;;
14088;SDS011;7120;52.890;6.040;2024-02-04T00:39:56;13.17;;;6.47;;
14088;SDS011;7120;52.890;6.040;2024-02-04T00:43:21;12.33;;;6.73;;
14088;SDS011;7120;52.890;6.040;2024-02-04T00:46:45;10.27;;;6.40;;
14088;SDS011;7120;52.890;6.040;2024-02-04T00:50:09;13.53;;;5.90;;
14088;SDS011;7120;52.890;6.040;2024-02-04T00:53:33;12.93;;;5.20;;
14088;SDS011;7120;52.890;6.040;2024-02-04T00:56:57;12.57;;;4.50;;
14088;SDS011;7120;52.890;6.040;2024-02-04T01:00:25;11.27;;;4.53;;
14088;SDS011;7120;52.890;6.040;2024-02-04T01:03:49;8.60;;;4.57;;
14088;SDS011;7120;52.890;6.040;2024-02-04T01:07:13;15.27;;;5.10;;
14088;SDS011;7120;52.890;6.040;2024-02-04T01:10:37;11.63;;;4.80;;
14088;SDS011;7120;52.890;6.040;2024-02-04T01:14:01;10.73;;;4.70;;
14088;SDS011;7120;52.890;6.040;2024-02-04T01:17:25;12.87;;;5.00;;
14088;SDS011;7120;52.890;6.040;2024-02-04T01:20:48;10.00;;;5.50;;
14088;SDS011;7120;52.890;6.040;2024-02-04T01:24:12;12.17;;;5.17;;
14088;SDS011;7120;52.890;6.040;2024-02-04T01:27:36;9.50;;;5.17;;
14088;SDS011;7120;52.890;6.040;2024-02-04T01:31:03;9.37;;;4.93;;
14088;SDS011;7120;52.890;6.040;2024-02-04T01:34:27;16.60;;;6.33;;
14088;SDS011;7120;52.890;6.040;2024-02-04T01:37:51;8.33;;;6.00;;
14088;SDS011;7120;52.890;6.040;2024-02-04T01:41:15;13.87;;;6.50;;
14088;SDS011;7120;52.890;6.040;2024-02-04T01:44:39;13.33;;;6.90;;
14088;SDS011;7120;52.890;6.040;2024-02-04T01:48:03;12.60;;;7.67;;
14088;SDS011;7120;52.890;6.040;2024-02-04T01:51:27;18.73;;;7.63;;
14088;SDS011;7120;52.890;6.040;2024-02-04T01:54:51;14.57;;;8.17;;
14088;SDS011;7120;52.890;6.040;2024-02-04T01:58:16;17.23;;;9.17;;
14088;SDS011;7120;52.890;6.040;2024-02-04T02:01:40;17.13;;;9.37;;
14088;SDS011;7120;52.890;6.040;2024-02-04T02:05:06;14.60;;;10.10;;
14088;SDS011;7120;52.890;6.040;2024-02-04T02:08:33;19.93;;;10.10;;
14088;SDS011;7120;52.890;6.040;2024-02-04T02:15:25;17.83;;;10.47;;
14088;SDS011;7120;52.890;6.040;2024-02-04T02:18:52;19.83;;;10.50;;
14088;SDS011;7120;52.890;6.040;2024-02-04T02:26:02;21.20;;;10.07;;
14088;SDS011;7120;52.890;6.040;2024-02-04T02:29:26;15.47;;;9.40;;
14088;SDS011;7120;52.890;6.040;2024-02-04T02:32:50;16.20;;;8.93;;
14088;SDS011;7120;52.890;6.040;2024-02-04T02:36:15;19.77;;;8.80;;
14088;SDS011;7120;52.890;6.040;2024-02-04T02:39:42;14.90;;;7.93;;
14088;SDS011;7120;52.890;6.040;2024-02-04T02:43:10;19.63;;;7.50;;
14088;SDS011;7120;52.890;6.040;2024-02-04T02:46:36;19.27;;;7.67;;
14088;SDS011;7120;52.890;6.040;2024-02-04T02:50:07;17.67;;;7.23;;
14088;SDS011;7120;52.890;6.040;2024-02-04T02:53:31;16.40;;;6.77;;
14088;SDS011;7120;52.890;6.040;2024-02-04T02:56:55;9.67;;;6.30;;
14088;SDS011;7120;52.890;6.040;2024-02-04T03:00:19;13.87;;;6.47;;
14088;SDS011;7120;52.890;6.040;2024-02-04T03:03:43;15.23;;;7.37;;
14088;SDS011;7120;52.890;6.040;2024-02-04T03:07:07;15.70;;;6.90;;
14088;SDS011;7120;52.890;6.040;2024-02-04T03:10:31;18.80;;;7.20;;
14088;SDS011;7120;52.890;6.040;2024-02-04T03:13:55;17.40;;;6.07;;
14088;SDS011;7120;52.890;6.040;2024-02-04T03:17:18;11.80;;;5.53;;
14088;SDS011;7120;52.890;6.040;2024-02-04T03:20:42;16.63;;;5.47;;
14088;SDS011;7120;52.890;6.040;2024-02-04T03:24:06;16.40;;;5.50;;
14088;SDS011;7120;52.890;6.040;2024-02-04T03:27:30;16.73;;;6.33;;
14088;SDS011;7120;52.890;6.040;2024-02-04T03:30:54;20.17;;;5.80;;
14088;SDS011;7120;52.890;6.040;2024-02-04T03:34:18;12.13;;;5.27;;
14088;SDS011;7120;52.890;6.040;2024-02-04T03:37:42;13.77;;;5.27;;
14088;SDS011;7120;52.890;6.040;2024-02-04T03:41:06;12.47;;;5.40;;
14088;SDS011;7120;52.890;6.040;2024-02-04T03:44:30;15.63;;;5.77;;
14088;SDS011;7120;52.890;6.040;2024-02-04T03:47:54;14.00;;;5.10;;
14088;SDS011;7120;52.890;6.040;2024-02-04T03:51:18;9.93;;;4.63;;
14088;SDS011;7120;52.890;6.040;2024-02-04T03:54:42;11.90;;;4.90;;
14088;SDS011;7120;52.890;6.040;2024-02-04T03:58:06;11.67;;;6.40;;
14088;SDS011;7120;52.890;6.040;2024-02-04T04:01:32;18.27;;;5.30;;
14088;SDS011;7120;52.890;6.040;2024-02-04T04:04:56;14.17;;;5.33;;
14088;SDS011;7120;52.890;6.040;2024-02-04T04:08:19;13.83;;;4.73;;
14088;SDS011;7120;52.890;6.040;2024-02-04T04:11:43;16.20;;;4.90;;
14088;SDS011;7120;52.890;6.040;2024-02-04T04:15:07;14.53;;;4.67;;
14088;SDS011;7120;52.890;6.040;2024-02-04T04:18:31;11.80;;;4.50;;
14088;SDS011;7120;52.890;6.040;2024-02-04T04:21:58;14.03;;;4.03;;
14088;SDS011;7120;52.890;6.040;2024-02-04T04:25:21;12.70;;;4.57;;
14088;SDS011;7120;52.890;6.040;2024-02-04T04:28:45;10.53;;;4.57;;
14088;SDS011;7120;52.890;6.040;2024-02-04T04:32:09;18.13;;;4.70;;
14088;SDS011;7120;52.890;6.040;2024-02-04T04:35:33;11.43;;;4.30;;
14088;SDS011;7120;52.890;6.040;2024-02-04T04:38:57;10.00;;;4.07;;
14088;SDS011;7120;52.890;6.040;2024-02-04T04:42:20;12.03;;;3.80;;
14088;SDS011;7120;52.890;6.040;2024-02-04T04:45:44;14.63;;;4.53;;
14088;SDS011;7120;52.890;6.040;2024-02-04T04:49:09;14.10;;;4.70;;
14088;SDS011;7120;52.890;6.040;2024-02-04T04:52:33;10.13;;;3.60;;
14088;SDS011;7120;52.890;6.040;2024-02-04T04:55:57;16.33;;;3.63;;
14088;SDS011;7120;52.890;6.040;2024-02-04T04:59:20;12.77;;;3.63;;
14088;SDS011;7120;52.890;6.040;2024-02-04T05:02:44;12.07;;;3.20;;
14088;SDS011;7120;52.890;6.040;2024-02-04T05:06:09;8.73;;;3.07;;
14088;SDS011;7120;52.890;6.040;2024-02-04T05:09:32;13.63;;;3.53;;
14088;SDS011;7120;52.890;6.040;2024-02-04T05:12:56;8.60;;;2.90;;
14088;SDS011;7120;52.890;6.040;2024-02-04T05:16:20;11.30;;;3.40;;
14088;SDS011;7120;52.890;6.040;2024-02-04T05:19:44;11.63;;;2.93;;
14088;SDS011;7120;52.890;6.040;2024-02-04T05:23:08;12.00;;;2.73;;
14088;SDS011;7120;52.890;6.040;2024-02-04T05:26:32;11.00;;;3.00;;
14088;SDS011;7120;52.890;6.040;2024-02-04T05:29:56;10.33;;;2.70;;
14088;SDS011;7120;52.890;6.040;2024-02-04T05:33:20;12.53;;;2.97;;
14088;SDS011;7120;52.890;6.040;2024-02-04T05:36:43;14.33;;;3.13;;
14088;SDS011;7120;52.890;6.040;2024-02-04T05:40:07;10.90;;;2.83;;
14088;SDS011;7120;52.890;6.040;2024-02-04T05:43:31;10.77;;;2.77;;
14088;SDS011;7120;52.890;6.040;2024-02-04T05:46:55;11.33;;;3.07;;
14088;SDS011;7120;52.890;6.040;2024-02-04T05:50:19;13.50;;;2.73;;
14088;SDS011;7120;52.890;6.040;2024-02-04T05:53:43;9.27;;;2.40;;
14088;SDS011;7120;52.890;6.040;2024-02-04T05:57:07;16.30;;;2.80;;
14088;SDS011;7120;52.890;6.040;2024-02-04T06:00:30;13.30;;;3.07;;
14088;SDS011;7120;52.890;6.040;2024-02-04T06:03:54;12.60;;;3.10;;
14088;SDS011;7120;52.890;6.040;2024-02-04T06:07:18;14.17;;;3.17;;
14088;SDS011;7120;52.890;6.040;2024-02-04T06:10:42;10.83;;;2.50;;
14088;SDS011;7120;52.890;6.040;2024-02-04T06:14:09;12.13;;;3.70;;
14088;SDS011;7120;52.890;6.040;2024-02-04T06:17:39;13.37;;;3.70;;
14088;SDS011;7120;52.890;6.040;2024-02-04T06:21:04;11.13;;;3.10;;
14088;SDS011;7120;52.890;6.040;2024-02-04T06:24:28;11.33;;;3.07;;
14088;SDS011;7120;52.890;6.040;2024-02-04T06:27:52;11.67;;;3.10;;
14088;SDS011;7120;52.890;6.040;2024-02-04T06:31:16;10.67;;;2.77;;
14088;SDS011;7120;52.890;6.040;2024-02-04T06:34:39;15.20;;;3.73;;
14088;SDS011;7120;52.890;6.040;2024-02-04T06:38:03;15.30;;;3.30;;
14088;SDS011;7120;52.890;6.040;2024-02-04T06:41:28;11.60;;;2.83;;
14088;SDS011;7120;52.890;6.040;2024-02-04T06:44:52;12.90;;;3.03;;
14088;SDS011;7120;52.890;6.040;2024-02-04T06:48:18;12.07;;;3.57;;
14088;SDS011;7120;52.890;6.040;2024-02-04T06:51:43;15.20;;;3.30;;
14088;SDS011;7120;52.890;6.040;2024-02-04T06:55:08;15.67;;;3.63;;
14088;SDS011;7120;52.890;6.040;2024-02-04T06:58:32;13.67;;;3.00;;
14088;SDS011;7120;52.890;6.040;2024-02-04T07:01:56;12.60;;;2.47;;
14088;SDS011;7120;52.890;6.040;2024-02-04T07:05:20;15.70;;;3.30;;
14088;SDS011;7120;52.890;6.040;2024-02-04T07:08:43;12.40;;;2.33;;
14088;SDS011;7120;52.890;6.040;2024-02-04T07:12:07;10.23;;;2.90;;
14088;SDS011;7120;52.890;6.040;2024-02-04T07:15:33;11.60;;;2.80;;
14088;SDS011;7120;52.890;6.040;2024-02-04T07:18:57;9.77;;;2.90;;
14088;SDS011;7120;52.890;6.040;2024-02-04T07:22:21;13.80;;;2.80;;
14088;SDS011;7120;52.890;6.040;2024-02-04T07:25:44;11.37;;;3.27;;
14088;SDS011;7120;52.890;6.040;2024-02-04T07:29:08;11.53;;;3.00;;
14088;SDS011;7120;52.890;6.040;2024-02-04T07:32:32;11.60;;;2.93;;
14088;SDS011;7120;52.890;6.040;2024-02-04T07:35:56;12.10;;;3.03;;
14088;SDS011;7120;52.890;6.040;2024-02-04T07:39:20;7.43;;;2.70;;
14088;SDS011;7120;52.890;6.040;2024-02-04T07:42:44;13.77;;;3.10;;
14088;SDS011;7120;52.890;6.040;2024-02-04T07:46:09;14.17;;;3.07;;
14088;SDS011;7120;52.890;6.040;2024-02-04T07:49:32;11.83;;;3.30;;
14088;SDS011;7120;52.890;6.040;2024-02-04T07:52:57;10.33;;;2.77;;
14088;SDS011;7120;52.890;6.040;2024-02-04T07:56:20;14.77;;;3.47;;
14088;SDS011;7120;52.890;6.040;2024-02-04T07:59:45;9.27;;;3.60;;
14088;SDS011;7120;52.890;6.040;2024-02-04T08:03:08;8.97;;;2.50;;
14088;SDS011;7120;52.890;6.040;2024-02-04T08:06:35;10.03;;;3.03;;
14088;SDS011;7120;52.890;6.040;2024-02-04T08:09:59;8.73;;;2.83;;
14088;SDS011;7120;52.890;6.040;2024-02-04T08:13:23;7.40;;;2.90;;
14088;SDS011;7120;52.890;6.040;2024-02-04T08:16:47;11.43;;;3.20;;
14088;SDS011;7120;52.890;6.040;2024-02-04T08:20:11;6.00;;;2.37;;
14088;SDS011;7120;52.890;6.040;2024-02-04T08:23:38;10.10;;;2.90;;
14088;SDS011;7120;52.890;6.040;2024-02-04T08:27:02;9.17;;;3.23;;
14088;SDS011;7120;52.890;6.040;2024-02-04T08:30:25;5.93;;;4.57;;
14088;SDS011;7120;52.890;6.040;2024-02-04T08:33:49;6.07;;;2.47;;
14088;SDS011;7120;52.890;6.040;2024-02-04T08:37:13;6.17;;;2.37;;
14088;SDS011;7120;52.890;6.040;2024-02-04T08:40:37;6.90;;;2.53;;
14088;SDS011;7120;52.890;6.040;2024-02-04T08:44:01;8.30;;;3.17;;
14088;SDS011;7120;52.890;6.040;2024-02-04T08:47:25;9.53;;;4.30;;
14088;SDS011;7120;52.890;6.040;2024-02-04T08:50:49;8.97;;;2.47;;
14088;SDS011;7120;52.890;6.040;2024-02-04T08:54:12;10.97;;;2.50;;
14088;SDS011;7120;52.890;6.040;2024-02-04T08:57:36;5.90;;;2.07;;
14088;SDS011;7120;52.890;6.040;2024-02-04T09:01:02;9.80;;;2.63;;
14088;SDS011;7120;52.890;6.040;2024-02-04T09:04:26;4.17;;;1.97;;
14088;SDS011;7120;52.890;6.040;2024-02-04T09:07:50;4.17;;;1.80;;
14088;SDS011;7120;52.890;6.040;2024-02-04T09:11:13;8.83;;;2.10;;
14088;SDS011;7120;52.890;6.040;2024-02-04T09:14:37;6.57;;;2.03;;
14088;SDS011;7120;52.890;6.040;2024-02-04T09:18:01;4.43;;;1.80;;
14088;SDS011;7120;52.890;6.040;2024-02-04T09:21:25;6.27;;;2.17;;
14088;SDS011;7120;52.890;6.040;2024-02-04T09:24:49;8.63;;;3.83;;
14088;SDS011;7120;52.890;6.040;2024-02-04T09:28:13;5.93;;;2.17;;
14088;SDS011;7120;52.890;6.040;2024-02-04T09:31:37;6.33;;;2.47;;
14088;SDS011;7120;52.890;6.040;2024-02-04T09:35:00;6.97;;;2.00;;
14088;SDS011;7120;52.890;6.040;2024-02-04T09:38:24;9.43;;;2.93;;
14088;SDS011;7120;52.890;6.040;2024-02-04T09:41:48;7.57;;;1.90;;
14088;SDS011;7120;52.890;6.040;2024-02-04T09:45:13;8.00;;;2.57;;
14088;SDS011;7120;52.890;6.040;2024-02-04T09:48:38;4.80;;;1.90;;
14088;SDS011;7120;52.890;6.040;2024-02-04T09:52:04;5.83;;;1.83;;
14088;SDS011;7120;52.890;6.040;2024-02-04T09:55:32;12.87;;;3.10;;
14088;SDS011;7120;52.890;6.040;2024-02-04T09:58:58;3.80;;;1.73;;
14088;SDS011;7120;52.890;6.040;2024-02-04T10:02:22;6.50;;;1.90;;
14088;SDS011;7120;52.890;6.040;2024-02-04T10:05:47;7.70;;;2.60;;
14088;SDS011;7120;52.890;6.040;2024-02-04T10:09:10;6.20;;;2.20;;
14088;SDS011;7120;52.890;6.040;2024-02-04T10:12:35;6.97;;;2.20;;
14088;SDS011;7120;52.890;6.040;2024-02-04T10:16:10;6.83;;;2.13;;
14088;SDS011;7120;52.890;6.040;2024-02-04T10:19:34;9.87;;;2.33;;
14088;SDS011;7120;52.890;6.040;2024-02-04T10:22:57;7.73;;;2.17;;
14088;SDS011;7120;52.890;6.040;2024-02-04T10:26:22;6.00;;;2.40;;
14088;SDS011;7120;52.890;6.040;2024-02-04T10:29:46;7.90;;;2.80;;
14088;SDS011;7120;52.890;6.040;2024-02-04T10:33:09;5.10;;;2.03;;
14088;SDS011;7120;52.890;6.040;2024-02-04T10:36:33;3.30;;;2.60;;
14088;SDS011;7120;52.890;6.040;2024-02-04T10:39:57;10.00;;;2.60;;
14088;SDS011;7120;52.890;6.040;2024-02-04T10:43:24;6.77;;;3.40;;
14088;SDS011;7120;52.890;6.040;2024-02-04T10:46:49;4.90;;;2.90;;
14088;SDS011;7120;52.890;6.040;2024-02-04T10:50:20;8.00;;;3.60;;
14088;SDS011;7120;52.890;6.040;2024-02-04T10:53:49;7.60;;;3.50;;
14088;SDS011;7120;52.890;6.040;2024-02-04T10:57:14;5.40;;;3.83;;
14088;SDS011;7120;52.890;6.040;2024-02-04T11:00:42;5.33;;;3.20;;
14088;SDS011;7120;52.890;6.040;2024-02-04T11:04:10;6.67;;;3.03;;
14088;SDS011;7120;52.890;6.040;2024-02-04T11:07:35;10.03;;;4.13;;
14088;SDS011;7120;52.890;6.040;2024-02-04T11:10:59;5.67;;;2.27;;
14088;SDS011;7120;52.890;6.040;2024-02-04T11:14:24;4.17;;;2.30;;
14088;SDS011;7120;52.890;6.040;2024-02-04T11:18:12;3.60;;;2.37;;
14088;SDS011;7120;52.890;6.040;2024-02-04T11:25:38;7.57;;;4.63;;
14088;SDS011;7120;52.890;6.040;2024-02-04T11:29:06;4.87;;;3.50;;
14088;SDS011;7120;52.890;6.040;2024-02-04T11:32:31;8.17;;;2.87;;
14088;SDS011;7120;52.890;6.040;2024-02-04T11:35:58;8.53;;;2.70;;
14088;SDS011;7120;52.890;6.040;2024-02-04T11:39:23;2.93;;;2.00;;
14088;SDS011;7120;52.890;6.040;2024-02-04T11:42:50;7.37;;;2.13;;
14088;SDS011;7120;52.890;6.040;2024-02-04T11:46:17;6.23;;;2.27;;
14088;SDS011;7120;52.890;6.040;2024-02-04T11:49:59;6.60;;;2.27;;
14088;SDS011;7120;52.890;6.040;2024-02-04T11:53:27;4.27;;;1.77;;
14088;SDS011;7120;52.890;6.040;2024-02-04T11:56:52;5.23;;;1.60;;
14088;SDS011;7120;52.890;6.040;2024-02-04T12:00:16;6.43;;;1.97;;
14088;SDS011;7120;52.890;6.040;2024-02-04T12:03:41;3.00;;;1.63;;
14088;SDS011;7120;52.890;6.040;2024-02-04T12:07:05;3.70;;;1.80;;
14088;SDS011;7120;52.890;6.040;2024-02-04T12:10:31;4.43;;;1.57;;
14088;SDS011;7120;52.890;6.040;2024-02-04T12:13:56;5.17;;;1.47;;
14088;SDS011;7120;52.890;6.040;2024-02-04T12:17:22;7.53;;;3.60;;
14088;SDS011;7120;52.890;6.040;2024-02-04T12:20:46;6.33;;;1.83;;
14088;SDS011;7120;52.890;6.040;2024-02-04T12:24:10;4.83;;;1.83;;
14088;SDS011;7120;52.890;6.040;2024-02-04T12:27:34;4.40;;;1.53;;
14088;SDS011;7120;52.890;6.040;2024-02-04T12:30:58;5.60;;;2.57;;
14088;SDS011;7120;52.890;6.040;2024-02-04T12:34:25;5.50;;;2.37;;
14088;SDS011;7120;52.890;6.040;2024-02-04T12:37:56;18.50;;;8.93;;
14088;SDS011;7120;52.890;6.040;2024-02-04T12:41:21;7.47;;;1.80;;
14088;SDS011;7120;52.890;6.040;2024-02-04T12:44:48;8.40;;;1.53;;
14088;SDS011;7120;52.890;6.040;2024-02-04T12:48:14;7.60;;;1.53;;
14088;SDS011;7120;52.890;6.040;2024-02-04T12:51:44;3.87;;;1.33;;
14088;SDS011;7120;52.890;6.040;2024-02-04T12:55:08;6.60;;;1.87;;
14088;SDS011;7120;52.890;6.040;2024-02-04T12:58:42;6.97;;;1.80;;
14088;SDS011;7120;52.890;6.040;2024-02-04T13:02:07;8.30;;;1.80;;
14088;SDS011;7120;52.890;6.040;2024-02-04T13:05:33;6.50;;;1.30;;
14088;SDS011;7120;52.890;6.040;2024-02-04T13:09:02;4.70;;;1.10;;
14088;SDS011;7120;52.890;6.040;2024-02-04T13:12:26;5.77;;;1.40;;
14088;SDS011;7120;52.890;6.040;2024-02-04T13:15:53;5.33;;;1.80;;
14088;SDS011;7120;52.890;6.040;2024-02-04T13:19:17;4.97;;;1.73;;
14088;SDS011;7120;52.890;6.040;2024-02-04T13:22:41;3.53;;;1.20;;
14088;SDS011;7120;52.890;6.040;2024-02-04T13:26:05;2.30;;;1.17;;
14088;SDS011;7120;52.890;6.040;2024-02-04T13:29:31;5.47;;;1.30;;
14088;SDS011;7120;52.890;6.040;2024-02-04T13:32:55;2.87;;;1.40;;
14088;SDS011;7120;52.890;6.040;2024-02-04T13:36:19;3.87;;;1.90;;
14088;SDS011;7120;52.890;6.040;2024-02-04T13:39:43;4.20;;;1.40;;
14088;SDS011;7120;52.890;6.040;2024-02-04T13:43:07;2.70;;;1.37;;
14088;SDS011;7120;52.890;6.040;2024-02-04T13:46:31;2.93;;;1.30;;
14088;SDS011;7120;52.890;6.040;2024-02-04T13:49:55;4.17;;;1.60;;
14088;SDS011;7120;52.890;6.040;2024-02-04T13:53:19;7.90;;;3.07;;
14088;SDS011;7120;52.890;6.040;2024-02-04T13:56:43;5.13;;;2.70;;
14088;SDS011;7120;52.890;6.040;2024-02-04T14:00:07;4.63;;;3.57;;
14088;SDS011;7120;52.890;6.040;2024-02-04T14:03:31;2.53;;;1.63;;
14088;SDS011;7120;52.890;6.040;2024-02-04T14:06:56;4.73;;;2.47;;
14088;SDS011;7120;52.890;6.040;2024-02-04T14:10:20;4.13;;;2.20;;
14088;SDS011;7120;52.890;6.040;2024-02-04T14:13:43;5.30;;;2.50;;
14088;SDS011;7120;52.890;6.040;2024-02-04T14:17:07;3.73;;;2.37;;
14088;SDS011;7120;52.890;6.040;2024-02-04T14:20:31;5.20;;;2.93;;
14088;SDS011;7120;52.890;6.040;2024-02-04T14:23:55;56.80;;;48.37;;
14088;SDS011;7120;52.890;6.040;2024-02-04T14:27:19;6.83;;;4.83;;
14088;SDS011;7120;52.890;6.040;2024-02-04T14:30:43;4.60;;;3.33;;
14088;SDS011;7120;52.890;6.040;2024-02-04T14:34:08;7.53;;;4.67;;
14088;SDS011;7120;52.890;6.040;2024-02-04T14:37:34;5.67;;;5.10;;
14088;SDS011;7120;52.890;6.040;2024-02-04T14:40:58;9.37;;;8.20;;
14088;SDS011;7120;52.890;6.040;2024-02-04T14:44:22;8.93;;;7.40;;
14088;SDS011;7120;52.890;6.040;2024-02-04T14:47:46;8.70;;;7.33;;
14088;SDS011;7120;52.890;6.040;2024-02-04T14:51:10;9.67;;;8.23;;
14088;SDS011;7120;52.890;6.040;2024-02-04T14:54:33;9.00;;;7.77;;
14088;SDS011;7120;52.890;6.040;2024-02-04T14:57:57;11.97;;;10.90;;
14088;SDS011;7120;52.890;6.040;2024-02-04T15:01:21;12.13;;;11.00;;
14088;SDS011;7120;52.890;6.040;2024-02-04T15:04:45;31.93;;;25.23;;
14088;SDS011;7120;52.890;6.040;2024-02-04T15:08:09;15.53;;;13.80;;
14088;SDS011;7120;52.890;6.040;2024-02-04T15:11:35;12.33;;;11.20;;
14088;SDS011;7120;52.890;6.040;2024-02-04T15:14:59;13.40;;;10.40;;
14088;SDS011;7120;52.890;6.040;2024-02-04T15:18:23;17.30;;;11.60;;
14088;SDS011;7120;52.890;6.040;2024-02-04T15:21:53;11.73;;;9.03;;
14088;SDS011;7120;52.890;6.040;2024-02-04T15:25:17;10.60;;;9.50;;
14088;SDS011;7120;52.890;6.040;2024-02-04T15:28:41;12.73;;;10.00;;
14088;SDS011;7120;52.890;6.040;2024-02-04T15:32:06;17.60;;;13.83;;
14088;SDS011;7120;52.890;6.040;2024-02-04T15:35:30;13.07;;;9.57;;
14088;SDS011;7120;52.890;6.040;2024-02-04T15:38:54;12.97;;;8.10;;
14088;SDS011;7120;52.890;6.040;2024-02-04T15:42:19;10.47;;;7.87;;
14088;SDS011;7120;52.890;6.040;2024-02-04T15:45:43;11.20;;;8.40;;
14088;SDS011;7120;52.890;6.040;2024-02-04T15:49:08;17.13;;;14.07;;
14088;SDS011;7120;52.890;6.040;2024-02-04T15:52:34;9.60;;;8.60;;
14088;SDS011;7120;52.890;6.040;2024-02-04T15:56:03;18.73;;;10.40;;
14088;SDS011;7120;52.890;6.040;2024-02-04T15:59:49;17.23;;;13.30;;
14088;SDS011;7120;52.890;6.040;2024-02-04T16:03:13;17.90;;;8.27;;
14088;SDS011;7120;52.890;6.040;2024-02-04T16:06:41;19.63;;;12.07;;
14088;SDS011;7120;52.890;6.040;2024-02-04T16:10:07;21.93;;;8.83;;
14088;SDS011;7120;52.890;6.040;2024-02-04T16:13:41;21.77;;;11.77;;
14088;SDS011;7120;52.890;6.040;2024-02-04T16:17:12;20.77;;;10.33;;
14088;SDS011;7120;52.890;6.040;2024-02-04T16:20:36;16.97;;;9.27;;
14088;SDS011;7120;52.890;6.040;2024-02-04T16:24:01;17.80;;;7.93;;
14088;SDS011;7120;52.890;6.040;2024-02-04T16:27:25;18.20;;;8.50;;
14088;SDS011;7120;52.890;6.040;2024-02-04T16:30:49;20.50;;;10.33;;
14088;SDS011;7120;52.890;6.040;2024-02-04T16:34:13;20.23;;;8.33;;
14088;SDS011;7120;52.890;6.040;2024-02-04T16:37:37;22.63;;;8.43;;
14088;SDS011;7120;52.890;6.040;2024-02-04T16:41:01;18.60;;;9.90;;
14088;SDS011;7120;52.890;6.040;2024-02-04T16:44:24;21.23;;;10.80;;
14088;SDS011;7120;52.890;6.040;2024-02-04T16:47:48;22.53;;;12.53;;
14088;SDS011;7120;52.890;6.040;2024-02-04T16:51:12;22.70;;;10.67;;
14088;SDS011;7120;52.890;6.040;2024-02-04T16:54:39;21.53;;;9.03;;
14088;SDS011;7120;52.890;6.040;2024-02-04T16:58:03;23.93;;;10.43;;
14088;SDS011;7120;52.890;6.040;2024-02-04T17:01:28;26.57;;;11.73;;
14088;SDS011;7120;52.890;6.040;2024-02-04T17:04:52;26.13;;;13.67;;
14088;SDS011;7120;52.890;6.040;2024-02-04T17:08:17;21.10;;;11.10;;
14088;SDS011;7120;52.890;6.040;2024-02-04T17:11:44;23.00;;;13.50;;
14088;SDS011;7120;52.890;6.040;2024-02-04T17:15:09;26.20;;;12.83;;
14088;SDS011;7120;52.890;6.040;2024-02-04T17:22:40;31.50;;;13.53;;
14088;SDS011;7120;52.890;6.040;2024-02-04T17:26:06;31.90;;;13.50;;
14088;SDS011;7120;52.890;6.040;2024-02-04T17:29:31;22.13;;;11.97;;
14088;SDS011;7120;52.890;6.040;2024-02-04T17:32:57;28.70;;;12.30;;
14088;SDS011;7120;52.890;6.040;2024-02-04T17:36:21;26.00;;;10.80;;
14088;SDS011;7120;52.890;6.040;2024-02-04T17:39:44;32.57;;;9.57;;
14088;SDS011;7120;52.890;6.040;2024-02-04T17:43:09;22.50;;;9.40;;
14088;SDS011;7120;52.890;6.040;2024-02-04T17:46:33;59.17;;;42.10;;
14088;SDS011;7120;52.890;6.040;2024-02-04T17:49:57;24.13;;;12.43;;
14088;SDS011;7120;52.890;6.040;2024-02-04T17:53:21;26.20;;;11.33;;
14088;SDS011;7120;52.890;6.040;2024-02-04T17:56:48;26.57;;;10.63;;
14088;SDS011;7120;52.890;6.040;2024-02-04T18:00:12;21.47;;;9.87;;
14088;SDS011;7120;52.890;6.040;2024-02-04T18:03:46;21.67;;;10.27;;
14088;SDS011;7120;52.890;6.040;2024-02-04T18:07:13;18.17;;;9.60;;
14088;SDS011;7120;52.890;6.040;2024-02-04T18:10:37;21.87;;;9.67;;
14088;SDS011;7120;52.890;6.040;2024-02-04T18:14:01;22.43;;;10.30;;
14088;SDS011;7120;52.890;6.040;2024-02-04T18:17:24;18.67;;;10.70;;
14088;SDS011;7120;52.890;6.040;2024-02-04T18:20:48;21.63;;;12.40;;
14088;SDS011;7120;52.890;6.040;2024-02-04T18:24:15;29.07;;;18.77;;
14088;SDS011;7120;52.890;6.040;2024-02-04T18:27:39;16.20;;;9.57;;
14088;SDS011;7120;52.890;6.040;2024-02-04T18:31:03;15.80;;;7.67;;
14088;SDS011;7120;52.890;6.040;2024-02-04T18:34:27;22.50;;;9.60;;
14088;SDS011;7120;52.890;6.040;2024-02-04T18:37:51;17.60;;;9.30;;
14088;SDS011;7120;52.890;6.040;2024-02-04T18:41:15;22.17;;;8.00;;
14088;SDS011;7120;52.890;6.040;2024-02-04T18:44:40;20.20;;;7.37;;
14088;SDS011;7120;52.890;6.040;2024-02-04T18:48:04;22.67;;;8.33;;
14088;SDS011;7120;52.890;6.040;2024-02-04T18:51:28;18.00;;;7.97;;
14088;SDS011;7120;52.890;6.040;2024-02-04T18:54:51;19.47;;;8.60;;
14088;SDS011;7120;52.890;6.040;2024-02-04T18:58:16;21.67;;;8.07;;
14088;SDS011;7120;52.890;6.040;2024-02-04T19:01:41;15.60;;;6.57;;
14088;SDS011;7120;52.890;6.040;2024-02-04T19:05:05;15.50;;;6.67;;
14088;SDS011;7120;52.890;6.040;2024-02-04T19:08:33;17.40;;;6.80;;
14088;SDS011;7120;52.890;6.040;2024-02-04T19:11:57;20.53;;;7.60;;
14088;SDS011;7120;52.890;6.040;2024-02-04T19:15:21;16.20;;;7.40;;
14088;SDS011;7120;52.890;6.040;2024-02-04T19:18:46;16.63;;;6.20;;
14088;SDS011;7120;52.890;6.040;2024-02-04T19:22:10;18.73;;;6.47;;
14088;SDS011;7120;52.890;6.040;2024-02-04T19:25:34;20.57;;;9.23;;
14088;SDS011;7120;52.890;6.040;2024-02-04T19:28:58;16.47;;;7.80;;
14088;SDS011;7120;52.890;6.040;2024-02-04T19:32:21;17.60;;;8.17;;
14088;SDS011;7120;52.890;6.040;2024-02-04T19:35:45;17.13;;;5.93;;
14088;SDS011;7120;52.890;6.040;2024-02-04T19:39:09;15.00;;;7.10;;
14088;SDS011;7120;52.890;6.040;2024-02-04T19:42:34;14.57;;;5.93;;
14088;SDS011;7120;52.890;6.040;2024-02-04T19:45:58;16.53;;;6.30;;
14088;SDS011;7120;52.890;6.040;2024-02-04T19:49:23;14.33;;;6.20;;
14088;SDS011;7120;52.890;6.040;2024-02-04T19:52:47;17.63;;;6.13;;
14088;SDS011;7120;52.890;6.040;2024-02-04T19:56:11;12.33;;;5.70;;
14088;SDS011;7120;52.890;6.040;2024-02-04T19:59:36;14.03;;;6.63;;
14088;SDS011;7120;52.890;6.040;2024-02-04T20:03:00;16.90;;;6.10;;
14088;SDS011;7120;52.890;6.040;2024-02-04T20:06:24;10.03;;;4.77;;
14088;SDS011;7120;52.890;6.040;2024-02-04T20:09:48;12.17;;;4.97;;
14088;SDS011;7120;52.890;6.040;2024-02-04T20:13:13;9.63;;;4.10;;
14088;SDS011;7120;52.890;6.040;2024-02-04T20:16:37;10.70;;;4.40;;
14088;SDS011;7120;52.890;6.040;2024-02-04T20:20:02;11.00;;;4.40;;
14088;SDS011;7120;52.890;6.040;2024-02-04T20:23:27;9.23;;;4.27;;
14088;SDS011;7120;52.890;6.040;2024-02-04T20:26:50;12.10;;;3.87;;
14088;SDS011;7120;52.890;6.040;2024-02-04T20:30:15;9.10;;;3.70;;
14088;SDS011;7120;52.890;6.040;2024-02-04T20:33:39;8.80;;;3.40;;
14088;SDS011;7120;52.890;6.040;2024-02-04T20:37:03;10.53;;;3.80;;
14088;SDS011;7120;52.890;6.040;2024-02-04T20:40:27;7.67;;;3.60;;
14088;SDS011;7120;52.890;6.040;2024-02-04T20:43:51;12.93;;;4.70;;
14088;SDS011;7120;52.890;6.040;2024-02-04T20:47:15;13.17;;;4.33;;
14088;SDS011;7120;52.890;6.040;2024-02-04T20:50:39;9.13;;;3.53;;
14088;SDS011;7120;52.890;6.040;2024-02-04T20:54:03;10.23;;;3.50;;